Ikarus — SWEW — position and weather

sailwx.info

Track history (hours):
 
Tides and Currents Weather Stations Pressure Air Temp Water Temp Dewpoint Dewpoint Depression Visibility Wind Speed Wind Dir Waves Ship Positions

Ikarus

Last reported at 2015-May-29 11:31 UTC. Time now 2015-May-29 12:13 UTC.
Position N 43°35' E 010°18'.

Length 200 m; draft 6.7 m.

Type: Ship. MMSI: 239513000.

Date/timePositionNaut miles runAvg speedWind from/ knotsBaromVisibWave heightAir tempDewpointWater temp
2015-May-29 11:31N 43°35' E 010°18'0 0.0
2015-May-29 10:31N 43°35' E 010°18'0 0.0
2015-May-29 09:31N 43°35' E 010°18'0 0.0
2015-May-29 08:28N 43°35' E 010°18'0 0.0
2015-May-29 07:31N 43°35' E 010°18'0 0.0
2015-May-29 06:31N 43°35' E 010°18'0 0.0
2015-May-29 05:31N 43°35' E 010°18'0 0.0
2015-May-29 04:31N 43°35' E 010°18'0 0.0
2015-May-29 03:28N 43°35' E 010°18'0 0.0
2015-May-29 02:31N 43°35' E 010°18'0 0.0
2015-May-29 01:31N 43°35' E 010°18'0 0.0
2015-May-29 00:31N 43°35' E 010°18'0 0.0
2015-May-28 23:31N 43°35' E 010°18'0 0.0
2015-May-28 22:31N 43°35' E 010°18'0 0.0
2015-May-28 21:31N 43°35' E 010°18'0 0.0
2015-May-28 20:33N 43°35' E 010°18'0 0.0
2015-May-28 19:33N 43°35' E 010°18'3 3.4
2015-May-28 18:33N 43°32' E 010°16'1514.9
2015-May-28 17:33N 43°22' E 010°00'2020.3
2015-May-28 16:33N 43°14' E 009°35'2020.4
2015-May-28 15:33N 43°08' E 009°08'2120.6
2015-May-28 14:33N 43°00' E 008°42'2120.6
2015-May-28 13:33N 42°53' E 008°15'2121.1
2015-May-28 12:33N 42°46' E 007°48'2121.0
2015-May-28 11:33N 42°39' E 007°21'2120.6
2015-May-28 10:33N 42°32' E 006°55'4120.4
2015-May-28 08:33N 42°18' E 006°03'2120.1
2015-May-28 07:32N 42°11' E 005°37'8120.2
2015-May-28 03:32N 41°45' E 003°54'6620.3
2015-May-28 00:17N 41°22' E 002°31'1520.1
2015-May-27 23:33N 41°16' E 002°13'6 5.7
2015-May-27 22:32N 41°22' E 002°11'0 0.0
2015-May-27 19:09N 41°22' E 002°11'15 9.5
2015-May-27 17:33N 41°07' E 002°04'2120.6
2015-May-27 16:33N 40°49' E 001°53'2120.8
2015-May-27 15:33N 40°31' E 001°38'2120.9
2015-May-27 14:33N 40°12' E 001°27'2020.4
2015-May-27 13:33N 39°54' E 001°15'5120.8
2015-May-27 11:07N 39°09' E 000°45'1420.9
2015-May-27 10:28N 38°57' E 000°37'6121.0
2015-May-27 07:33N 38°05' W 000°04'2120.7
2015-May-27 06:34N 37°48' W 000°19'2120.7
2015-May-27 05:33N 37°31' W 000°34'2120.6
2015-May-27 04:33N 37°17' W 000°53'2120.5
2015-May-27 03:33N 37°04' W 001°13'2320.7
2015-May-27 02:26N 36°48' W 001°34'2320.8
2015-May-27 01:20N 36°32' W 001°55'1519.9
2015-May-27 00:33N 36°23' W 002°10'1817.7
2015-May-26 23:34N 36°19' W 002°32'13020.9
2015-May-26 17:22N 35°59' W 005°10'16 2.0
2015-May-26 09:22N 35°56' W 005°30'1113.4
2015-May-26 08:33N 36°01' W 005°18'12315.2
2015-May-26 00:28N 36°21' W 002°48'1415.3
2015-May-25 23:33N 36°24' W 002°31'1615.3
2015-May-25 22:29N 36°27' W 002°11'1415.5
2015-May-25 21:33N 36°36' W 001°56'1715.3
2015-May-25 20:24N 36°47' W 001°40'3515.3
2015-May-25 18:06N 37°11' W 001°07'815.3
2015-May-25 17:34N 37°17' W 000°59'1515.5
2015-May-25 16:34N 37°27' W 000°45'1615.8
2015-May-25 15:34N 37°38' W 000°30'1615.7
2015-May-25 14:33N 37°51' W 000°19'1615.8
2015-May-25 13:34N 38°04' W 000°09'1615.7
2015-May-25 12:33N 38°18' E 000°02'5516.1
2015-May-25 09:06N 39°05' E 000°39'1015.9
2015-May-25 08:28N 39°14' E 000°45'1716.2
2015-May-25 07:26N 39°29' E 000°55'1415.9
2015-May-25 06:33N 39°41' E 001°04'1616.0
2015-May-25 05:33N 39°55' E 001°13'1616.2
2015-May-25 04:33N 40°10' E 001°23'1616.0
2015-May-25 03:33N 40°24' E 001°33'1616.1
2015-May-25 02:33N 40°38' E 001°43'1716.5
2015-May-25 01:33N 40°52' E 001°54'1616.4
2015-May-25 00:33N 41°07' E 002°04'1313.4
2015-May-24 23:33N 41°20' E 002°10'2 2.4
2015-May-24 22:32N 41°22' E 002°11'0 0.0
2015-May-24 21:33N 41°22' E 002°11'0 0.0
2015-May-24 20:33N 41°22' E 002°11'0 0.0
2015-May-24 19:33N 41°22' E 002°11'2 2.1
2015-May-24 18:33N 41°20' E 002°10'1111.0
2015-May-24 17:33N 41°22' E 002°24'1918.8
2015-May-24 16:33N 41°30' E 002°47'28819.2
2015-May-24 01:33N 43°17' E 008°49'1818.5
2015-May-24 00:33N 43°22' E 009°13'1919.0
2015-May-23 23:33N 43°28' E 009°38'1918.8
2015-May-23 22:33N 43°30' E 010°04'1111.2
2015-May-23 21:33N 43°34' E 010°18'1 0.6
2015-May-23 20:33N 43°35' E 010°18'0 0.0
2015-May-23 19:33N 43°35' E 010°18'0 0.0
2015-May-23 18:33N 43°35' E 010°18'0 0.0
2015-May-23 17:33N 43°35' E 010°18'0 0.0
2015-May-23 16:33N 43°35' E 010°18'0 0.0
2015-May-23 15:33N 43°35' E 010°18'0 0.0
2015-May-23 14:33N 43°35' E 010°18'0 0.0
2015-May-23 13:33N 43°35' E 010°18'0 0.0
2015-May-23 12:33N 43°35' E 010°18'0 0.0
2015-May-23 11:33N 43°35' E 010°18'0 0.0
2015-May-23 10:33N 43°35' E 010°18'0 0.0
2015-May-23 09:30N 43°35' E 010°18'0 0.0
2015-May-23 08:33N 43°35' E 010°18'0 0.0
2015-May-23 07:33N 43°35' E 010°18'0 0.0
2015-May-23 06:33N 43°35' E 010°18'0 0.0
2015-May-23 05:33N 43°35' E 010°18'0 0.0
2015-May-23 04:33N 43°35' E 010°18'0 0.0
2015-May-23 03:33N 43°35' E 010°18'0 0.0
2015-May-23 02:33N 43°35' E 010°18'0 0.0
2015-May-23 01:33N 43°35' E 010°18'0 0.0
2015-May-23 00:30N 43°35' E 010°18'0 0.0
2015-May-22 23:33N 43°35' E 010°18'0 0.0
2015-May-22 22:33N 43°35' E 010°18'0 0.0
2015-May-22 21:33N 43°35' E 010°18'0 0.0
2015-May-22 20:33N 43°35' E 010°18'0 0.0
2015-May-22 19:33N 43°35' E 010°18'0 0.0
2015-May-22 18:33N 43°35' E 010°18'0 0.0
2015-May-22 17:33N 43°35' E 010°18'0 0.0
2015-May-22 16:33N 43°35' E 010°18'0 0.0
2015-May-22 15:27N 43°35' E 010°18'0 0.0
2015-May-22 14:33N 43°35' E 010°18'0 0.0
2015-May-22 13:33N 43°35' E 010°18'0 0.0
2015-May-22 12:33N 43°35' E 010°18'0 0.0
2015-May-22 11:33N 43°35' E 010°18'0 0.0
2015-May-22 10:30N 43°35' E 010°18'0 0.0
2015-May-22 09:33N 43°35' E 010°18'0 0.0
2015-May-22 08:33N 43°35' E 010°18'0 0.0
2015-May-22 07:30N 43°35' E 010°18'0 0.0
2015-May-22 06:33N 43°35' E 010°18'0 0.0
2015-May-22 05:33N 43°35' E 010°18'1 0.5
2015-May-22 04:33N 43°34' E 010°18'6 5.9
2015-May-22 03:33N 43°30' E 010°12'8 8.2
2015-May-22 02:34N 43°30' E 010°01'1413.7
2015-May-22 01:33N 43°31' E 009°42'1414.1
2015-May-22 00:33N 43°31' E 009°23'1414.1
2015-May-21 23:33N 43°31' E 009°03'1414.4
2015-May-21 22:33N 43°31' E 008°43'1413.9
2015-May-21 21:31N 43°31' E 008°23'4313.5
2015-May-21 18:21N 43°27' E 007°25'6713.7
2015-May-21 13:27N 42°57' E 006°02'4814.3
2015-May-21 10:07N 42°59' E 004°57'37114.3
2015-May-20 08:06N 38°06' W 000°04'1119.4
2015-May-20 07:33N 37°57' W 000°11'1919.4
2015-May-20 06:33N 37°41' W 000°25'1919.2
2015-May-20 05:33N 37°26' W 000°40'1919.0
2015-May-20 04:33N 37°14' W 000°59'4019.3
2015-May-20 02:29N 36°48' W 001°36'2719.1
2015-May-20 01:03N 36°29' W 002°01'1018.8
2015-May-20 00:32N 36°23' W 002°11'1919.1
2015-May-19 23:33N 36°20' W 002°34'12921.3
2015-May-19 17:31N 35°58' W 005°11'  
Track history (hours):
 
Tides and Currents Weather Stations Pressure Air Temp Water Temp Dewpoint Dewpoint Depression Visibility Wind Speed Wind Dir Waves Ship Positions

Ikarus

Last reported at 2015-May-29 11:31 UTC. Time now 2015-May-29 12:13 UTC.
Position N 43°35' E 010°18'.

Length 200 m; draft 6.7 m.

Type: Ship. MMSI: 239513000.

Date/timePositionNaut miles runAvg speedWind from/ knotsBaromVisibWave heightAir tempDewpointWater temp
2015-May-29 11:31N 43°35' E 010°18'0 0.0
2015-May-29 10:31N 43°35' E 010°18'0 0.0
2015-May-29 09:31N 43°35' E 010°18'0 0.0
2015-May-29 08:28N 43°35' E 010°18'0 0.0
2015-May-29 07:31N 43°35' E 010°18'0 0.0
2015-May-29 06:31N 43°35' E 010°18'0 0.0
2015-May-29 05:31N 43°35' E 010°18'0 0.0
2015-May-29 04:31N 43°35' E 010°18'0 0.0
2015-May-29 03:28N 43°35' E 010°18'0 0.0
2015-May-29 02:31N 43°35' E 010°18'0 0.0
2015-May-29 01:31N 43°35' E 010°18'0 0.0
2015-May-29 00:31N 43°35' E 010°18'0 0.0
2015-May-28 23:31N 43°35' E 010°18'0 0.0
2015-May-28 22:31N 43°35' E 010°18'0 0.0
2015-May-28 21:31N 43°35' E 010°18'0 0.0
2015-May-28 20:33N 43°35' E 010°18'0 0.0
2015-May-28 19:33N 43°35' E 010°18'3 3.4
2015-May-28 18:33N 43°32' E 010°16'1514.9
2015-May-28 17:33N 43°22' E 010°00'2020.3
2015-May-28 16:33N 43°14' E 009°35'2020.4
2015-May-28 15:33N 43°08' E 009°08'2120.6
2015-May-28 14:33N 43°00' E 008°42'2120.6
2015-May-28 13:33N 42°53' E 008°15'2121.1
2015-May-28 12:33N 42°46' E 007°48'2121.0
2015-May-28 11:33N 42°39' E 007°21'2120.6
2015-May-28 10:33N 42°32' E 006°55'4120.4
2015-May-28 08:33N 42°18' E 006°03'2120.1
2015-May-28 07:32N 42°11' E 005°37'8120.2
2015-May-28 03:32N 41°45' E 003°54'6620.3
2015-May-28 00:17N 41°22' E 002°31'1520.1
2015-May-27 23:33N 41°16' E 002°13'6 5.7
2015-May-27 22:32N 41°22' E 002°11'0 0.0
2015-May-27 19:09N 41°22' E 002°11'15 9.5
2015-May-27 17:33N 41°07' E 002°04'2120.6
2015-May-27 16:33N 40°49' E 001°53'2120.8
2015-May-27 15:33N 40°31' E 001°38'2120.9
2015-May-27 14:33N 40°12' E 001°27'2020.4
2015-May-27 13:33N 39°54' E 001°15'5120.8
2015-May-27 11:07N 39°09' E 000°45'1420.9
2015-May-27 10:28N 38°57' E 000°37'6121.0
2015-May-27 07:33N 38°05' W 000°04'2120.7
2015-May-27 06:34N 37°48' W 000°19'2120.7
2015-May-27 05:33N 37°31' W 000°34'2120.6
2015-May-27 04:33N 37°17' W 000°53'2120.5
2015-May-27 03:33N 37°04' W 001°13'2320.7
2015-May-27 02:26N 36°48' W 001°34'2320.8
2015-May-27 01:20N 36°32' W 001°55'1519.9
2015-May-27 00:33N 36°23' W 002°10'1817.7
2015-May-26 23:34N 36°19' W 002°32'13020.9
2015-May-26 17:22N 35°59' W 005°10'16 2.0
2015-May-26 09:22N 35°56' W 005°30'1113.4
2015-May-26 08:33N 36°01' W 005°18'12315.2
2015-May-26 00:28N 36°21' W 002°48'1415.3
2015-May-25 23:33N 36°24' W 002°31'1615.3
2015-May-25 22:29N 36°27' W 002°11'1415.5
2015-May-25 21:33N 36°36' W 001°56'1715.3
2015-May-25 20:24N 36°47' W 001°40'3515.3
2015-May-25 18:06N 37°11' W 001°07'815.3
2015-May-25 17:34N 37°17' W 000°59'1515.5
2015-May-25 16:34N 37°27' W 000°45'1615.8
2015-May-25 15:34N 37°38' W 000°30'1615.7
2015-May-25 14:33N 37°51' W 000°19'1615.8
2015-May-25 13:34N 38°04' W 000°09'1615.7
2015-May-25 12:33N 38°18' E 000°02'5516.1
2015-May-25 09:06N 39°05' E 000°39'1015.9
2015-May-25 08:28N 39°14' E 000°45'1716.2
2015-May-25 07:26N 39°29' E 000°55'1415.9
2015-May-25 06:33N 39°41' E 001°04'1616.0
2015-May-25 05:33N 39°55' E 001°13'1616.2
2015-May-25 04:33N 40°10' E 001°23'1616.0
2015-May-25 03:33N 40°24' E 001°33'1616.1
2015-May-25 02:33N 40°38' E 001°43'1716.5
2015-May-25 01:33N 40°52' E 001°54'1616.4
2015-May-25 00:33N 41°07' E 002°04'1313.4
2015-May-24 23:33N 41°20' E 002°10'2 2.4
2015-May-24 22:32N 41°22' E 002°11'0 0.0
2015-May-24 21:33N 41°22' E 002°11'0 0.0
2015-May-24 20:33N 41°22' E 002°11'0 0.0
2015-May-24 19:33N 41°22' E 002°11'2 2.1
2015-May-24 18:33N 41°20' E 002°10'1111.0
2015-May-24 17:33N 41°22' E 002°24'1918.8
2015-May-24 16:33N 41°30' E 002°47'28819.2
2015-May-24 01:33N 43°17' E 008°49'1818.5
2015-May-24 00:33N 43°22' E 009°13'1919.0
2015-May-23 23:33N 43°28' E 009°38'1918.8
2015-May-23 22:33N 43°30' E 010°04'1111.2
2015-May-23 21:33N 43°34' E 010°18'1 0.6
2015-May-23 20:33N 43°35' E 010°18'0 0.0
2015-May-23 19:33N 43°35' E 010°18'0 0.0
2015-May-23 18:33N 43°35' E 010°18'0 0.0
2015-May-23 17:33N 43°35' E 010°18'0 0.0
2015-May-23 16:33N 43°35' E 010°18'0 0.0
2015-May-23 15:33N 43°35' E 010°18'0 0.0
2015-May-23 14:33N 43°35' E 010°18'0 0.0
2015-May-23 13:33N 43°35' E 010°18'0 0.0
2015-May-23 12:33N 43°35' E 010°18'0 0.0
2015-May-23 11:33N 43°35' E 010°18'0 0.0
2015-May-23 10:33N 43°35' E 010°18'0 0.0
2015-May-23 09:30N 43°35' E 010°18'0 0.0
2015-May-23 08:33N 43°35' E 010°18'0 0.0
2015-May-23 07:33N 43°35' E 010°18'0 0.0
2015-May-23 06:33N 43°35' E 010°18'0 0.0
2015-May-23 05:33N 43°35' E 010°18'0 0.0
2015-May-23 04:33N 43°35' E 010°18'0 0.0
2015-May-23 03:33N 43°35' E 010°18'0 0.0
2015-May-23 02:33N 43°35' E 010°18'0 0.0
2015-May-23 01:33N 43°35' E 010°18'0 0.0
2015-May-23 00:30N 43°35' E 010°18'0 0.0
2015-May-22 23:33N 43°35' E 010°18'0 0.0
2015-May-22 22:33N 43°35' E 010°18'0 0.0
2015-May-22 21:33N 43°35' E 010°18'0 0.0
2015-May-22 20:33N 43°35' E 010°18'0 0.0
2015-May-22 19:33N 43°35' E 010°18'0 0.0
2015-May-22 18:33N 43°35' E 010°18'0 0.0
2015-May-22 17:33N 43°35' E 010°18'0 0.0
2015-May-22 16:33N 43°35' E 010°18'0 0.0
2015-May-22 15:27N 43°35' E 010°18'0 0.0
2015-May-22 14:33N 43°35' E 010°18'0 0.0
2015-May-22 13:33N 43°35' E 010°18'0 0.0
2015-May-22 12:33N 43°35' E 010°18'0 0.0
2015-May-22 11:33N 43°35' E 010°18'0 0.0
2015-May-22 10:30N 43°35' E 010°18'0 0.0
2015-May-22 09:33N 43°35' E 010°18'0 0.0
2015-May-22 08:33N 43°35' E 010°18'0 0.0
2015-May-22 07:30N 43°35' E 010°18'0 0.0
2015-May-22 06:33N 43°35' E 010°18'0 0.0
2015-May-22 05:33N 43°35' E 010°18'1 0.5
2015-May-22 04:33N 43°34' E 010°18'6 5.9
2015-May-22 03:33N 43°30' E 010°12'8 8.2
2015-May-22 02:34N 43°30' E 010°01'1413.7
2015-May-22 01:33N 43°31' E 009°42'1414.1
2015-May-22 00:33N 43°31' E 009°23'1414.1
2015-May-21 23:33N 43°31' E 009°03'1414.4
2015-May-21 22:33N 43°31' E 008°43'1413.9
2015-May-21 21:31N 43°31' E 008°23'4313.5
2015-May-21 18:21N 43°27' E 007°25'6713.7
2015-May-21 13:27N 42°57' E 006°02'4814.3
2015-May-21 10:07N 42°59' E 004°57'37114.3
2015-May-20 08:06N 38°06' W 000°04'1119.4
2015-May-20 07:33N 37°57' W 000°11'1919.4
2015-May-20 06:33N 37°41' W 000°25'1919.2
2015-May-20 05:33N 37°26' W 000°40'1919.0
2015-May-20 04:33N 37°14' W 000°59'4019.3
2015-May-20 02:29N 36°48' W 001°36'2719.1
2015-May-20 01:03N 36°29' W 002°01'1018.8
2015-May-20 00:32N 36°23' W 002°11'1919.1
2015-May-19 23:33N 36°20' W 002°34'12921.3
2015-May-19 17:31N 35°58' W 005°11'  

Dump ship's entire track history